Time;durP1;ratioP1;P1;durP2;ratioP2;P2;SDS_P1;SDS_P2;PMS_P1;PMS_P2;Temp;Humidity;BMP_temperature;BMP_pressure;BME280_temperature;BME280_humidity;BME280_pressure;Samples;Min_cycle;Max_cycle;Signal;HPM_P1;HPM_P2
2022/11/29 21:57:37;;;;;;;30.30;19.70;;;;;;;0.47;77.61;101273.52;97669;1330;635657;-69
2022/11/29 22:00:08;;;;;;;35.30;21.30;;;;;;;0.51;77.24;101269.14;100646;1304;92835;-70
2022/11/29 22:02:35;;;;;;;35.30;22.10;;;;;;;0.50;77.05;101269.46;100578;1306;138038;-70
2022/11/29 22:05:03;;;;;;;35.70;20.90;;;;;;;0.48;76.65;101279.00;100487;1292;95126;-70
2022/11/29 22:07:31;;;;;;;34.90;20.90;;;;;;;0.44;76.89;101278.40;100153;1302;138328;-71
2022/11/29 22:10:03;;;;;;;33.40;21.40;;;;;;;0.42;76.80;101281.93;99375;1305;108070;-71
2022/11/29 22:12:39;;;;;;;33.60;21.00;;;;;;;0.39;76.77;101290.95;99402;1302;137668;-70
2022/11/29 22:15:18;;;;;;;37.40;21.70;;;;;;;0.38;76.92;101288.34;99593;1299;107180;-70
2022/11/29 22:17:53;;;;;;;33.80;20.90;;;;;;;0.38;77.01;101286.80;99822;1294;94395;-70
2022/11/29 22:20:20;;;;;;;32.70;20.10;;;;;;;0.37;77.11;101290.90;101143;1300;138327;-69
2022/11/29 22:22:47;;;;;;;29.60;19.30;;;;;;;0.40;77.25;101286.67;101003;1292;105444;-71
2022/11/29 22:25:15;;;;;;;31.50;19.30;;;;;;;0.43;77.17;101294.63;101112;1295;138190;-71
2022/11/29 22:27:42;;;;;;;31.00;20.50;;;;;;;0.46;76.97;101292.30;101251;1300;108377;-69
2022/11/29 22:30:11;;;;;;;30.10;20.10;;;;;;;0.47;76.72;101294.20;101259;1300;93216;-69
2022/11/29 22:32:38;;;;;;;33.40;21.30;;;;;;;0.44;76.60;101299.95;101208;1298;137726;-69
2022/11/29 22:35:06;;;;;;;31.70;19.90;;;;;;;0.43;76.52;101301.12;101233;1300;107114;-69
2022/11/29 22:37:33;;;;;;;29.50;18.90;;;;;;;0.39;76.37;101299.83;101162;1294;137929;-70
2022/11/29 22:40:00;;;;;;;28.50;18.10;;;;;;;0.33;76.27;101298.09;101267;1283;107604;-69
2022/11/29 22:42:28;;;;;;;27.10;17.60;;;;;;;0.28;76.25;101300.21;100820;1293;138079;-68
2022/11/29 22:44:55;;;;;;;26.30;17.50;;;;;;;0.23;76.41;101305.23;101382;1284;108253;-69
2022/11/29 22:47:23;;;;;;;28.40;17.80;;;;;;;0.20;76.29;101296.94;101235;1301;108738;-70
2022/11/29 22:49:50;;;;;;;26.70;16.70;;;;;;;0.18;76.39;101298.07;101145;1296;137860;-71
2022/11/29 22:52:17;;;;;;;27.70;17.30;;;;;;;0.18;76.45;101288.84;101275;1299;106859;-70
2022/11/29 22:54:44;;;;;;;28.40;18.20;;;;;;;0.20;76.65;101287.70;101196;1298;138199;-69
2022/11/29 22:57:12;;;;;;;26.80;17.80;;;;;;;0.22;76.57;101282.11;101296;1299;108760;-70
2022/11/29 22:59:39;;;;;;;31.30;18.90;;;;;;;0.23;76.59;101280.09;101187;1306;106614;-69
2022/11/29 23:02:06;;;;;;;31.80;19.70;;;;;;;0.24;76.61;101277.72;99852;1294;137276;-71
2022/11/29 23:04:34;;;;;;;31.60;20.10;;;;;;;0.24;76.56;101277.89;99883;1295;108611;-71
2022/11/29 23:07:01;;;;;;;30.00;18.90;;;;;;;0.21;76.58;101276.96;100244;1298;137165;-71
2022/11/29 23:09:28;;;;;;;32.50;19.90;;;;;;;0.21;76.64;101274.05;99760;1294;109066;-71
2022/11/29 23:11:56;;;;;;;28.10;18.70;;;;;;;0.20;76.62;101280.86;99750;1299;107968;-69
2022/11/29 23:14:24;;;;;;;27.90;18.60;;;;;;;0.20;76.71;101283.94;99692;1300;137694;-69
2022/11/29 23:16:52;;;;;;;29.60;17.20;;;;;;;0.20;76.74;101277.96;99654;1294;108572;-68
2022/11/29 23:19:19;;;;;;;28.10;17.70;;;;;;;0.20;76.73;101273.33;99469;1284;137801;-70
2022/11/29 23:21:47;;;;;;;28.60;18.80;;;;;;;0.22;76.84;101267.40;99647;1291;109855;-69
2022/11/29 23:24:15;;;;;;;28.10;17.90;;;;;;;0.25;76.51;101276.02;99872;1299;110435;-69
2022/11/29 23:26:45;;;;;;;29.80;17.50;;;;;;;0.23;76.51;101268.45;99798;1293;138234;-69
2022/11/29 23:29:14;;;;;;;28.70;18.50;;;;;;;0.20;76.50;101266.67;99931;1299;108503;-69
2022/11/29 23:31:42;;;;;;;26.40;18.30;;;;;;;0.19;76.60;101267.33;99724;1293;137490;-71
2022/11/29 23:34:10;;;;;;;29.70;19.50;;;;;;;0.14;76.55;101273.34;100505;1293;110649;-68
2022/11/29 23:36:38;;;;;;;29.80;18.20;;;;;;;0.12;76.72;101267.96;99762;1299;138661;-69
2022/11/29 23:39:06;;;;;;;29.20;19.60;;;;;;;0.10;76.73;101265.54;99891;1299;95613;-69
2022/11/29 23:41:33;;;;;;;26.70;18.50;;;;;;;0.11;76.92;101262.82;99661;1287;107615;-70
2022/11/29 23:44:02;;;;;;;29.40;19.60;;;;;;;0.13;76.95;101260.81;99785;1299;137587;-71
2022/11/29 23:46:29;;;;;;;28.90;18.20;;;;;;;0.13;76.98;101257.23;99688;1291;108695;-69
2022/11/29 23:48:57;;;;;;;27.50;17.70;;;;;;;0.14;76.89;101253.66;99444;1293;137767;-70
2022/11/29 23:51:24;;;;;;;28.60;18.10;;;;;;;0.15;76.86;101251.10;99629;1291;96627;-70
2022/11/29 23:53:54;;;;;;;29.80;18.40;;;;;;;0.15;76.69;101253.01;99609;1292;107143;-70
2022/11/29 23:56:22;;;;;;;28.20;17.60;;;;;;;0.14;76.66;101248.35;99575;1293;138004;-69
2022/11/29 23:58:50;;;;;;;28.20;17.80;;;;;;;0.12;76.74;101252.24;99910;1299;108393;-69
